createdAt,value
2018-05-15T00:02:25.302Z,8.43
2018-05-15T00:04:52.389Z,9.90
2018-05-15T00:07:18.901Z,8.47
2018-05-15T00:09:45.484Z,8.90
2018-05-15T00:12:12.155Z,9.20
2018-05-15T00:14:38.768Z,9.70
2018-05-15T00:17:05.286Z,9.40
2018-05-15T00:19:33.375Z,10.03
2018-05-15T00:21:59.915Z,9.37
2018-05-15T00:24:28.156Z,9.93
2018-05-15T00:26:54.706Z,9.43
2018-05-15T00:29:22.652Z,8.83
2018-05-15T00:31:49.896Z,9.37
2018-05-15T00:34:16.459Z,10.30
2018-05-15T00:36:43.323Z,9.07
2018-05-15T00:39:09.817Z,11.10
2018-05-15T00:41:36.877Z,10.90
2018-05-15T00:44:04.131Z,11.43
2018-05-15T00:46:31.390Z,11.03
2018-05-15T00:48:58.469Z,11.93
2018-05-15T00:51:25.335Z,11.47
2018-05-15T00:53:52.118Z,11.40
2018-05-15T00:56:20.525Z,11.13
2018-05-15T00:58:46.907Z,10.77
2018-05-15T01:01:13.453Z,12.57
2018-05-15T01:03:39.968Z,11.43
2018-05-15T01:06:07.902Z,12.90
2018-05-15T01:08:34.485Z,12.10
2018-05-15T01:11:00.963Z,12.13
2018-05-15T01:13:29.046Z,11.70
2018-05-15T01:15:56.060Z,12.67
2018-05-15T01:18:22.820Z,12.30
2018-05-15T01:20:49.403Z,11.97
2018-05-15T01:23:16.062Z,13.60
2018-05-15T01:25:42.595Z,12.63
2018-05-15T01:28:09.185Z,13.60
2018-05-15T01:30:35.694Z,13.87
2018-05-15T01:33:02.779Z,15.43
2018-05-15T01:35:29.339Z,15.67
2018-05-15T01:37:56.004Z,14.23
2018-05-15T01:40:23.319Z,14.63
2018-05-15T01:42:49.858Z,15.20
2018-05-15T01:45:16.435Z,15.93
2018-05-15T01:47:43.826Z,14.13
2018-05-15T01:50:10.404Z,15.50
2018-05-15T01:52:37.047Z,14.63
2018-05-15T01:55:04.112Z,16.20
2018-05-15T01:57:30.586Z,15.70
2018-05-15T01:59:57.729Z,15.63
2018-05-15T02:02:24.135Z,15.80
2018-05-15T02:04:50.587Z,14.60
2018-05-15T02:07:17.325Z,17.30
2018-05-15T02:09:43.789Z,15.47
2018-05-15T02:12:11.013Z,16.37
2018-05-15T02:14:37.522Z,17.30
2018-05-15T02:17:05.049Z,17.40
2018-05-15T02:19:31.578Z,18.37
2018-05-15T02:21:58.447Z,18.30
2018-05-15T02:24:25.610Z,20.33
2018-05-15T02:26:52.099Z,19.33
2018-05-15T02:29:18.720Z,19.53
2018-05-15T02:31:45.593Z,17.00
2018-05-15T02:34:12.003Z,17.73
2018-05-15T02:36:38.431Z,17.50
2018-05-15T02:39:05.716Z,18.23
2018-05-15T02:41:33.122Z,18.13
2018-05-15T02:43:59.533Z,16.93
2018-05-15T02:46:27.849Z,17.77
2018-05-15T02:48:54.269Z,15.87
2018-05-15T02:51:21.443Z,17.47
2018-05-15T02:53:47.884Z,17.50
2018-05-15T02:56:14.218Z,17.93
2018-05-15T02:58:41.340Z,17.40
2018-05-15T03:01:07.770Z,18.10
2018-05-15T03:03:34.181Z,19.53
2018-05-15T03:06:00.559Z,19.40
2018-05-15T03:08:27.397Z,19.93
2018-05-15T03:10:53.830Z,19.33
2018-05-15T03:13:20.264Z,20.80
2018-05-15T03:15:46.773Z,21.67
2018-05-15T03:18:13.217Z,24.73
2018-05-15T03:20:39.666Z,24.70
2018-05-15T03:23:06.144Z,24.10
2018-05-15T03:25:32.509Z,24.10
2018-05-15T03:27:59.232Z,24.83
2018-05-15T03:30:25.683Z,26.73
2018-05-15T03:32:52.100Z,25.60
2018-05-15T03:35:19.332Z,25.70
2018-05-15T03:37:46.521Z,26.23
2018-05-15T03:40:13.054Z,26.30
2018-05-15T03:42:39.420Z,27.07
2018-05-15T03:45:06.961Z,27.37
2018-05-15T03:47:34.502Z,28.90
2018-05-15T03:50:02.601Z,27.20
2018-05-15T03:52:29.131Z,29.60
2018-05-15T03:54:56.004Z,31.53
2018-05-15T03:57:23.713Z,34.47
2018-05-15T03:59:50.264Z,33.07
2018-05-15T04:02:24.442Z,34.87
2018-05-15T04:04:58.594Z,35.00
2018-05-15T04:07:37.176Z,31.97
2018-05-15T04:10:05.501Z,30.60
2018-05-15T04:12:32.651Z,28.03
2018-05-15T04:15:00.791Z,31.20
2018-05-15T04:17:29.293Z,24.50
2018-05-15T04:19:55.698Z,24.40
2018-05-15T04:22:23.875Z,23.80
2018-05-15T04:24:51.057Z,22.30
2018-05-15T04:27:17.853Z,23.60
2018-05-15T04:29:46.112Z,24.00
2018-05-15T04:32:12.595Z,22.83
2018-05-15T04:34:39.108Z,22.20
2018-05-15T04:37:05.579Z,19.87
2018-05-15T04:39:32.460Z,20.40
2018-05-15T04:42:00.616Z,20.20
2018-05-15T04:44:27.906Z,21.33
2018-05-15T04:46:55.043Z,21.50
2018-05-15T04:49:21.618Z,21.40
2018-05-15T04:51:48.401Z,21.30
2018-05-15T04:54:14.990Z,22.20
2018-05-15T04:56:41.833Z,19.03
2018-05-15T04:59:08.354Z,19.70
2018-05-15T05:01:36.673Z,19.77
2018-05-15T05:04:03.698Z,20.10
2018-05-15T05:06:31.757Z,21.43
2018-05-15T05:08:59.741Z,20.60
2018-05-15T05:11:29.160Z,21.13
2018-05-15T05:13:55.773Z,19.83
2018-05-15T05:16:24.262Z,19.20
2018-05-15T05:18:51.953Z,22.50
2018-05-15T05:21:18.829Z,21.03
2018-05-15T05:23:45.713Z,20.63
2018-05-15T05:26:20.783Z,20.20
2018-05-15T05:28:47.236Z,20.33
2018-05-15T05:31:13.691Z,21.10
2018-05-15T05:33:40.173Z,20.10
2018-05-15T05:36:07.793Z,19.93
2018-05-15T05:38:35.381Z,19.13
2018-05-15T05:41:01.816Z,19.13
2018-05-15T05:43:30.069Z,18.60
2018-05-15T05:45:56.714Z,18.90
2018-05-15T05:48:23.296Z,18.43
2018-05-15T05:50:50.325Z,17.77
2018-05-15T05:53:18.739Z,18.07
2018-05-15T05:55:45.279Z,18.30
2018-05-15T05:58:12.932Z,16.00
2018-05-15T06:00:41.115Z,16.20
2018-05-15T06:03:08.672Z,14.30
2018-05-15T06:05:35.618Z,16.30
2018-05-15T06:08:02.117Z,14.30
2018-05-15T06:10:30.481Z,13.37
2018-05-15T06:12:57.472Z,14.37
2018-05-15T06:15:25.128Z,15.13
2018-05-15T06:17:52.317Z,14.70
2018-05-15T06:20:19.774Z,14.10
2018-05-15T06:22:46.436Z,13.37
2018-05-15T06:25:14.499Z,13.07
2018-05-15T06:27:42.288Z,14.03
2018-05-15T06:30:09.775Z,14.30
2018-05-15T06:32:36.475Z,12.53
2018-05-15T06:35:03.823Z,12.60
2018-05-15T06:37:30.380Z,12.40
2018-05-15T06:39:57.086Z,12.80
2018-05-15T06:42:23.796Z,12.33
2018-05-15T06:44:51.479Z,11.50
2018-05-15T06:47:20.354Z,12.10
2018-05-15T06:49:47.679Z,11.80
2018-05-15T06:52:14.706Z,13.83
2018-05-15T06:54:42.961Z,11.93
2018-05-15T06:57:09.454Z,11.87
2018-05-15T06:59:38.620Z,11.77
2018-05-15T07:02:06.081Z,11.93
2018-05-15T07:04:33.548Z,11.90
2018-05-15T07:07:01.818Z,11.80
2018-05-15T07:09:29.705Z,11.70
2018-05-15T07:11:56.174Z,10.50
2018-05-15T07:14:22.789Z,10.70
2018-05-15T07:16:50.529Z,10.17
2018-05-15T07:19:17.318Z,9.67
2018-05-15T07:21:44.538Z,9.60
2018-05-15T07:24:11.060Z,9.50
2018-05-15T07:26:37.662Z,9.73
2018-05-15T07:29:04.229Z,9.17
2018-05-15T07:31:30.688Z,7.90
2018-05-15T07:33:58.054Z,9.03
2018-05-15T07:36:24.582Z,8.70
2018-05-15T07:38:52.321Z,8.37
2018-05-15T07:41:19.159Z,7.40
2018-05-15T07:43:46.441Z,8.07
2018-05-15T07:46:13.900Z,7.67
2018-05-15T07:48:40.900Z,7.07
2018-05-15T07:51:07.678Z,7.33
2018-05-15T07:53:34.407Z,7.37
2018-05-15T07:56:01.873Z,7.23
2018-05-15T07:58:29.232Z,8.00
2018-05-15T08:00:56.159Z,7.00
2018-05-15T08:03:23.368Z,7.40
2018-05-15T08:05:50.080Z,7.40
2018-05-15T08:08:18.060Z,7.23
2018-05-15T08:10:45.584Z,6.40
2018-05-15T08:13:12.211Z,6.17
2018-05-15T08:15:41.204Z,5.63
2018-05-15T08:18:08.676Z,6.20
2018-05-15T08:20:35.575Z,5.20
2018-05-15T08:23:02.630Z,5.37
2018-05-15T08:25:29.798Z,5.80
2018-05-15T08:27:57.088Z,4.97
2018-05-15T08:30:25.668Z,4.97
2018-05-15T08:32:52.519Z,4.80
2018-05-15T08:35:20.495Z,5.23
2018-05-15T08:37:47.062Z,4.90
2018-05-15T08:40:16.880Z,4.27
2018-05-15T08:42:45.833Z,3.90
2018-05-15T08:45:13.638Z,4.67
2018-05-15T08:47:40.238Z,4.93
2018-05-15T08:50:08.584Z,4.90
2018-05-15T08:52:36.267Z,4.90
2018-05-15T08:55:04.427Z,4.17
2018-05-15T08:57:31.066Z,5.37
2018-05-15T08:59:59.107Z,4.20
2018-05-15T09:02:27.283Z,4.80
2018-05-15T09:04:53.987Z,4.63
2018-05-15T09:07:20.491Z,4.20
2018-05-15T09:09:48.990Z,4.47
2018-05-15T09:12:16.506Z,4.10
2018-05-15T09:14:43.111Z,4.33
2018-05-15T09:17:12.023Z,4.10
2018-05-15T09:19:39.474Z,3.80
2018-05-15T09:22:06.040Z,4.20
2018-05-15T09:24:32.961Z,4.33
2018-05-15T09:27:01.345Z,4.10
2018-05-15T09:32:02.230Z,3.80
2018-05-15T09:34:29.537Z,4.10
2018-05-15T09:36:56.487Z,4.23
2018-05-15T09:39:24.078Z,4.00
2018-05-15T09:41:52.077Z,4.30
2018-05-15T09:44:19.367Z,4.30
2018-05-15T09:46:46.623Z,4.00
2018-05-15T09:49:14.867Z,4.30
2018-05-15T09:51:41.804Z,3.57
2018-05-15T09:54:10.506Z,3.87
2018-05-15T09:56:37.896Z,4.30
2018-05-15T09:59:04.297Z,3.77
2018-05-15T10:01:31.601Z,4.00
2018-05-15T10:03:59.903Z,4.80
2018-05-15T10:06:27.131Z,4.67
2018-05-15T10:08:54.447Z,3.90
2018-05-15T10:11:21.054Z,3.40
2018-05-15T10:13:50.660Z,4.37
2018-05-15T10:16:19.204Z,4.30
2018-05-15T10:18:46.258Z,4.27
2018-05-15T10:21:13.989Z,4.20
2018-05-15T10:23:41.931Z,3.93
2018-05-15T10:26:09.178Z,3.73
2018-05-15T10:28:36.559Z,3.90
2018-05-15T10:31:03.911Z,4.00
2018-05-15T10:33:30.525Z,4.40
2018-05-15T10:35:56.980Z,4.40
2018-05-15T10:38:23.749Z,3.93
2018-05-15T10:40:52.057Z,4.30
2018-05-15T10:43:18.575Z,4.40
2018-05-15T10:45:45.913Z,4.27
2018-05-15T10:48:13.273Z,4.43
2018-05-15T10:50:41.964Z,4.23
2018-05-15T10:53:08.448Z,4.47
2018-05-15T10:55:35.317Z,4.03
2018-05-15T10:58:02.842Z,4.17
2018-05-15T11:00:30.538Z,4.00
2018-05-15T11:02:57.685Z,3.67
2018-05-15T11:05:24.140Z,5.43
2018-05-15T11:07:50.956Z,4.10
2018-05-15T11:10:17.646Z,4.30
2018-05-15T11:12:45.678Z,4.27
2018-05-15T11:15:12.110Z,4.90
2018-05-15T11:17:38.741Z,3.90
2018-05-15T11:20:13.876Z,5.10
2018-05-15T11:22:53.485Z,4.70
2018-05-15T11:25:21.156Z,4.77
2018-05-15T11:27:49.101Z,5.27
2018-05-15T11:32:50.799Z,6.70
2018-05-15T11:35:17.595Z,4.93
2018-05-15T11:37:45.779Z,5.13
2018-05-15T11:40:12.587Z,6.20
2018-05-15T11:42:39.117Z,4.97
2018-05-15T11:45:06.352Z,4.57
2018-05-15T11:47:32.975Z,5.13
2018-05-15T11:50:01.186Z,6.00
2018-05-15T11:52:29.679Z,5.20
2018-05-15T11:54:56.255Z,5.00
2018-05-15T11:57:23.559Z,3.97
2018-05-15T11:59:50.211Z,4.10
2018-05-15T12:02:17.099Z,3.83
2018-05-15T12:04:45.303Z,4.03
2018-05-15T12:07:13.554Z,3.67
2018-05-15T12:09:42.202Z,3.60
2018-05-15T12:12:08.817Z,3.67
2018-05-15T12:14:36.184Z,3.73
2018-05-15T12:17:03.431Z,4.33
2018-05-15T12:19:30.368Z,4.10
2018-05-15T12:21:58.597Z,3.53
2018-05-15T12:24:26.902Z,4.63
2018-05-15T12:26:53.718Z,4.40
2018-05-15T12:29:20.173Z,4.27
2018-05-15T12:31:48.470Z,5.10
2018-05-15T12:34:15.368Z,3.40
2018-05-15T12:36:43.593Z,5.00
2018-05-15T12:39:11.327Z,3.70
2018-05-15T12:41:38.202Z,4.40
2018-05-15T12:44:05.516Z,4.17
2018-05-15T12:46:32.017Z,4.17
2018-05-15T12:48:58.446Z,4.40
2018-05-15T12:51:25.020Z,4.30
2018-05-15T12:53:51.497Z,4.37
2018-05-15T12:56:19.714Z,4.47
2018-05-15T12:58:46.270Z,4.60
2018-05-15T13:01:14.604Z,4.50
2018-05-15T13:03:41.089Z,4.53
2018-05-15T13:06:07.732Z,4.80
2018-05-15T13:08:34.467Z,5.10
2018-05-15T13:11:01.316Z,4.60
2018-05-15T13:13:28.542Z,4.40
2018-05-15T13:15:55.697Z,4.80
2018-05-15T13:18:22.370Z,4.63
2018-05-15T13:20:49.729Z,4.60
2018-05-15T13:23:19.462Z,4.13
2018-05-15T13:25:46.367Z,4.30
2018-05-15T13:28:13.177Z,4.63
2018-05-15T13:30:43.787Z,3.97
2018-05-15T13:33:11.094Z,5.60
2018-05-15T13:35:38.143Z,4.10
2018-05-15T13:38:04.801Z,4.87
2018-05-15T13:40:33.084Z,5.30
2018-05-15T13:43:00.199Z,5.00
2018-05-15T13:45:28.364Z,5.07
2018-05-15T13:47:56.587Z,4.20
2018-05-15T13:50:23.295Z,4.47
2018-05-15T13:52:49.965Z,4.17
2018-05-15T13:55:16.917Z,3.87
2018-05-15T13:57:44.533Z,4.20
2018-05-15T14:00:11.137Z,4.27
2018-05-15T14:02:39.385Z,3.40
2018-05-15T14:05:08.534Z,4.07
2018-05-15T14:07:35.337Z,3.50
2018-05-15T14:10:04.036Z,4.27
2018-05-15T14:12:31.825Z,4.93
2018-05-15T14:15:00.751Z,3.80
2018-05-15T14:17:28.461Z,4.20
2018-05-15T14:19:56.638Z,4.33
2018-05-15T14:22:24.682Z,4.40
2018-05-15T14:24:52.684Z,4.30
2018-05-15T14:27:20.626Z,5.00
2018-05-15T14:29:48.677Z,4.47
2018-05-15T14:32:18.604Z,4.57
2018-05-15T14:34:45.457Z,5.87
2018-05-15T14:37:16.220Z,5.53
2018-05-15T14:39:43.324Z,4.67
2018-05-15T14:42:21.912Z,4.30
2018-05-15T14:44:49.213Z,4.40
2018-05-15T14:47:17.704Z,4.30
2018-05-15T14:49:44.301Z,3.93
2018-05-15T14:52:11.994Z,5.47
2018-05-15T14:54:40.410Z,4.93
2018-05-15T14:57:07.109Z,4.10
2018-05-15T14:59:35.074Z,3.93
2018-05-15T15:02:01.539Z,4.73
2018-05-15T15:04:29.035Z,4.43
2018-05-15T15:06:57.157Z,3.90
2018-05-15T15:09:23.597Z,4.63
2018-05-15T15:11:51.306Z,3.67
2018-05-15T15:14:17.890Z,3.60
2018-05-15T15:16:45.719Z,3.80
2018-05-15T15:19:14.285Z,3.40
2018-05-15T15:21:42.501Z,5.23
2018-05-15T15:24:09.236Z,4.17
2018-05-15T15:26:37.419Z,3.90
2018-05-15T15:29:05.707Z,3.80
2018-05-15T15:31:34.003Z,3.60
2018-05-15T15:34:02.684Z,4.10
2018-05-15T15:36:29.593Z,4.53
2018-05-15T15:38:58.075Z,5.60
2018-05-15T15:41:25.226Z,4.87
2018-05-15T15:43:53.465Z,5.30
2018-05-15T15:46:20.528Z,4.63
2018-05-15T15:48:48.121Z,4.10
2018-05-15T15:51:16.528Z,5.03
2018-05-15T15:53:43.456Z,4.13
2018-05-15T15:56:11.763Z,4.67
2018-05-15T15:58:39.946Z,4.80
2018-05-15T16:01:06.580Z,3.80
2018-05-15T16:03:34.874Z,4.70
2018-05-15T16:06:02.224Z,5.40
2018-05-15T16:08:30.442Z,5.80
2018-05-15T16:10:57.157Z,4.53
2018-05-15T16:13:23.624Z,4.90
2018-05-15T16:15:51.658Z,5.70
2018-05-15T16:18:19.804Z,5.40
2018-05-15T16:20:47.956Z,5.63
2018-05-15T16:23:15.844Z,6.00
2018-05-15T16:25:42.732Z,6.40
2018-05-15T16:28:10.639Z,5.90
2018-05-15T16:30:38.916Z,6.20
2018-05-15T16:33:05.445Z,7.10
2018-05-15T16:35:33.952Z,5.70
2018-05-15T16:38:02.285Z,6.20
2018-05-15T16:40:30.783Z,6.50
2018-05-15T16:43:01.040Z,7.20
2018-05-15T16:45:29.149Z,7.67
2018-05-15T16:47:57.612Z,7.43
2018-05-15T16:50:24.191Z,7.70
2018-05-15T16:52:51.186Z,6.20
2018-05-15T16:55:18.877Z,7.20
2018-05-15T16:57:46.255Z,8.90
2018-05-15T17:00:14.531Z,7.00
2018-05-15T17:02:41.353Z,8.43
2018-05-15T17:05:08.306Z,8.07
2018-05-15T17:07:35.299Z,7.17
2018-05-15T17:10:02.457Z,6.67
2018-05-15T17:12:30.282Z,7.37
2018-05-15T17:14:56.772Z,7.10
2018-05-15T17:17:23.681Z,7.57
2018-05-15T17:19:50.307Z,8.10
2018-05-15T17:22:17.260Z,7.53
2018-05-15T17:24:45.446Z,8.13
2018-05-15T17:27:17.846Z,7.60
2018-05-15T17:29:46.270Z,8.30
2018-05-15T17:32:13.995Z,7.70
2018-05-15T17:34:42.277Z,8.37
2018-05-15T17:37:09.635Z,8.60
2018-05-15T17:39:37.560Z,9.97
2018-05-15T17:42:05.806Z,8.20
2018-05-15T17:44:32.541Z,9.17
2018-05-15T17:46:59.135Z,9.07
2018-05-15T17:49:26.422Z,9.00
2018-05-15T17:51:53.442Z,9.23
2018-05-15T17:54:20.762Z,9.83
2018-05-15T17:56:48.311Z,9.13
2018-05-15T17:59:16.584Z,9.40
2018-05-15T18:01:44.034Z,9.10
2018-05-15T18:04:10.711Z,9.37
2018-05-15T18:06:37.745Z,9.53
2018-05-15T18:09:04.915Z,8.33
2018-05-15T18:11:33.173Z,8.73
2018-05-15T18:14:02.313Z,9.23
2018-05-15T18:16:29.646Z,8.27
2018-05-15T18:18:56.199Z,7.80
2018-05-15T18:21:23.460Z,7.93
2018-05-15T18:23:50.242Z,8.20
2018-05-15T18:26:16.851Z,7.23
2018-05-15T18:28:43.885Z,6.53
2018-05-15T18:31:11.470Z,5.60
2018-05-15T18:33:38.426Z,5.80
2018-05-15T18:36:06.007Z,5.67
2018-05-15T18:38:32.760Z,6.30
2018-05-15T18:41:01.481Z,6.60
2018-05-15T18:43:29.792Z,6.73
2018-05-15T18:45:56.557Z,7.00
2018-05-15T18:48:23.798Z,8.00
2018-05-15T18:50:52.348Z,8.10
2018-05-15T18:53:20.942Z,7.00
2018-05-15T18:55:51.225Z,7.97
2018-05-15T18:58:21.015Z,7.80
2018-05-15T19:00:48.353Z,7.27
2018-05-15T19:03:16.448Z,7.57
2018-05-15T19:05:45.982Z,7.40
2018-05-15T19:08:12.631Z,7.37
2018-05-15T19:10:40.151Z,7.37
2018-05-15T19:13:09.325Z,7.10
2018-05-15T19:15:40.640Z,8.77
2018-05-15T19:18:07.732Z,7.03
2018-05-15T19:20:35.422Z,8.30
2018-05-15T19:23:03.561Z,10.20
2018-05-15T19:25:32.264Z,11.10
2018-05-15T19:27:59.312Z,10.60
2018-05-15T19:30:25.944Z,9.90
2018-05-15T19:32:59.811Z,9.30
2018-05-15T19:35:29.441Z,10.30
2018-05-15T19:37:57.811Z,9.90
2018-05-15T19:40:29.617Z,9.70
2018-05-15T19:42:57.680Z,9.20
2018-05-15T19:45:24.829Z,10.07
2018-05-15T19:47:56.560Z,10.23
2018-05-15T19:50:24.566Z,10.23
2018-05-15T19:52:52.954Z,9.73
2018-05-15T19:55:19.858Z,10.10
2018-05-15T19:57:46.847Z,10.77
2018-05-15T20:00:13.622Z,11.60
2018-05-15T20:02:40.836Z,11.63
2018-05-15T20:05:07.977Z,10.10
2018-05-15T20:07:34.707Z,10.77
2018-05-15T20:10:01.482Z,10.40
2018-05-15T20:12:28.432Z,10.90
2018-05-15T20:14:56.004Z,12.10
2018-05-15T20:17:23.103Z,10.23
2018-05-15T20:19:52.450Z,11.10
2018-05-15T20:22:19.400Z,10.47
2018-05-15T20:24:46.363Z,12.20
2018-05-15T20:27:13.070Z,12.17
2018-05-15T20:29:40.202Z,12.60
2018-05-15T20:32:07.438Z,14.13
2018-05-15T20:34:33.996Z,13.60
2018-05-15T20:37:00.760Z,12.90
2018-05-15T20:39:27.608Z,13.73
2018-05-15T20:41:55.935Z,13.27
2018-05-15T20:44:22.474Z,12.67
2018-05-15T20:46:49.249Z,13.77
2018-05-15T20:49:15.860Z,13.50
2018-05-15T20:51:42.448Z,15.37
2018-05-15T20:54:10.765Z,16.87
2018-05-15T20:56:37.370Z,16.10
2018-05-15T20:59:04.036Z,15.93
2018-05-15T21:01:31.942Z,15.73
2018-05-15T21:03:58.682Z,16.17
2018-05-15T21:06:25.321Z,17.40
2018-05-15T21:08:52.002Z,14.67
2018-05-15T21:11:19.325Z,15.67
2018-05-15T21:13:47.457Z,16.00
2018-05-15T21:16:20.907Z,16.00
2018-05-15T21:18:48.686Z,14.53
2018-05-15T21:21:15.166Z,16.23
2018-05-15T21:23:41.751Z,14.10
2018-05-15T21:26:08.805Z,14.83
2018-05-15T21:28:35.264Z,15.30
2018-05-15T21:31:01.930Z,14.40
2018-05-15T21:33:28.454Z,14.40
2018-05-15T21:35:56.705Z,15.67
2018-05-15T21:38:23.608Z,15.60
2018-05-15T21:40:50.181Z,15.50
2018-05-15T21:43:16.638Z,16.00
2018-05-15T21:45:43.028Z,15.90
2018-05-15T21:48:09.822Z,15.47
2018-05-15T21:50:36.300Z,14.80
2018-05-15T21:53:03.911Z,14.30
2018-05-15T21:55:32.042Z,15.50
2018-05-15T21:57:58.751Z,14.27
2018-05-15T22:00:25.283Z,14.67
2018-05-15T22:02:51.851Z,13.30
2018-05-15T22:05:19.003Z,15.17
2018-05-15T22:07:46.996Z,15.13
2018-05-15T22:10:13.810Z,15.60
2018-05-15T22:12:53.533Z,16.53
2018-05-15T22:15:32.017Z,15.00
2018-05-15T22:18:11.428Z,14.73
2018-05-15T22:20:49.978Z,14.80
2018-05-15T22:23:16.197Z,16.60
2018-05-15T22:25:43.414Z,15.83
2018-05-15T22:28:12.912Z,15.10
2018-05-15T22:30:40.167Z,15.00
2018-05-15T22:33:06.669Z,15.00
2018-05-15T22:35:33.203Z,13.90
2018-05-15T22:37:59.980Z,13.20
2018-05-15T22:40:26.787Z,13.47
2018-05-15T22:42:53.194Z,13.90
2018-05-15T22:45:20.115Z,13.93
2018-05-15T22:47:46.694Z,13.43
2018-05-15T22:50:13.140Z,12.13
2018-05-15T22:52:39.641Z,14.00
2018-05-15T22:55:09.784Z,12.63
2018-05-15T22:57:36.910Z,12.20
2018-05-15T23:00:03.737Z,12.90
2018-05-15T23:02:30.241Z,12.27
2018-05-15T23:04:56.760Z,13.00
2018-05-15T23:07:23.229Z,13.33
2018-05-15T23:09:49.777Z,13.63
2018-05-15T23:12:16.415Z,12.87
2018-05-15T23:14:43.961Z,13.53
2018-05-15T23:17:10.557Z,13.20
2018-05-15T23:19:37.202Z,12.97
2018-05-15T23:22:04.401Z,13.50
2018-05-15T23:24:31.321Z,15.40
2018-05-15T23:26:57.812Z,14.60
2018-05-15T23:29:26.822Z,16.50
2018-05-15T23:31:55.259Z,16.37
2018-05-15T23:34:22.118Z,15.90
2018-05-15T23:36:49.035Z,14.30
2018-05-15T23:39:15.526Z,13.67
2018-05-15T23:41:41.908Z,14.60
2018-05-15T23:44:09.070Z,14.10
2018-05-15T23:46:35.499Z,14.03
2018-05-15T23:49:02.058Z,15.00
2018-05-15T23:51:28.624Z,14.23
2018-05-15T23:53:55.191Z,16.73
2018-05-15T23:56:22.089Z,14.17
2018-05-15T23:58:49.013Z,13.87
